Time;durP1;ratioP1;P1;durP2;ratioP2;P2;SDS_P1;SDS_P2;PMS_P1;PMS_P2;Temp;Humidity;BMP_temperature;BMP_pressure;BME280_temperature;BME280_humidity;BME280_pressure;Samples;Min_cycle;Max_cycle;Signal;HPM_P1;HPM_P2
2024/03/03 00:00:07;;;;;;;111.70;92.00;;;;;;;7.77;100.00;98290.23;105184;1267;59766;-72
2024/03/03 00:02:34;;;;;;;110.90;93.60;;;;;;;7.77;100.00;98287.73;105051;1268;66342;-71
2024/03/03 00:05:00;;;;;;;123.90;96.90;;;;;;;7.76;100.00;98287.08;105126;1267;59667;-71
2024/03/03 00:07:27;;;;;;;117.80;97.90;;;;;;;7.76;100.00;98285.89;105007;1271;59714;-72
2024/03/03 00:09:53;;;;;;;111.10;91.80;;;;;;;7.75;100.00;98283.61;105149;1266;65186;-71
2024/03/03 00:12:20;;;;;;;112.10;92.60;;;;;;;7.76;100.00;98285.36;105164;1267;59692;-71
2024/03/03 00:14:46;;;;;;;112.30;89.90;;;;;;;7.75;100.00;98282.06;105184;1265;59670;-70
2024/03/03 00:17:13;;;;;;;113.90;93.10;;;;;;;7.74;100.00;98279.06;105130;1263;59681;-72
2024/03/03 00:19:42;;;;;;;114.60;92.60;;;;;;;7.75;100.00;98281.52;105171;1268;60019;-72
2024/03/03 00:22:08;;;;;;;121.00;94.70;;;;;;;7.74;100.00;98281.23;105166;1264;64112;-71
2024/03/03 00:24:35;;;;;;;110.40;90.60;;;;;;;7.74;100.00;98281.23;105127;1265;61051;-71
2024/03/03 00:27:02;;;;;;;117.20;94.00;;;;;;;7.72;100.00;98280.11;105144;1264;64144;-71
2024/03/03 00:29:28;;;;;;;116.80;89.30;;;;;;;7.71;100.00;98283.69;105144;1263;59526;-71
2024/03/03 00:31:55;;;;;;;114.60;91.30;;;;;;;7.70;100.00;98284.95;105130;1268;60928;-71
2024/03/03 00:34:21;;;;;;;118.90;94.30;;;;;;;7.70;100.00;98282.48;105170;1267;59694;-72
2024/03/03 00:36:48;;;;;;;118.80;94.90;;;;;;;7.70;100.00;98281.28;105101;1276;59751;-71
2024/03/03 00:39:15;;;;;;;125.00;99.20;;;;;;;7.69;100.00;98279.91;105146;1266;65990;-72
2024/03/03 00:41:41;;;;;;;129.30;99.20;;;;;;;7.68;100.00;98274.68;105125;1268;59654;-71
2024/03/03 00:44:08;;;;;;;128.50;102.30;;;;;;;7.67;100.00;98274.77;105115;1263;59622;-71
2024/03/03 00:46:34;;;;;;;129.70;101.80;;;;;;;7.65;100.00;98274.90;105112;1264;65234;-72
2024/03/03 00:49:01;;;;;;;132.50;104.30;;;;;;;7.63;100.00;98270.79;105006;1268;59560;-71
2024/03/03 00:51:27;;;;;;;133.70;104.30;;;;;;;7.62;100.00;98271.23;105120;1267;59728;-71
2024/03/03 00:53:54;;;;;;;137.30;106.20;;;;;;;7.62;100.00;98272.83;105016;1270;59563;-71
2024/03/03 00:56:21;;;;;;;141.10;107.70;;;;;;;7.61;100.00;98269.84;105128;1269;59549;-71
2024/03/03 00:58:48;;;;;;;132.30;108.00;;;;;;;7.61;100.00;98267.73;105149;1264;65292;-71
2024/03/03 01:01:15;;;;;;;138.30;108.40;;;;;;;7.60;100.00;98271.03;105138;1264;59563;-72
2024/03/03 01:03:41;;;;;;;131.60;104.80;;;;;;;7.59;100.00;98274.47;105149;1266;64703;-72
2024/03/03 01:06:08;;;;;;;135.20;107.70;;;;;;;7.58;100.00;98275.03;105110;1264;59643;-71
2024/03/03 01:08:35;;;;;;;131.60;100.70;;;;;;;7.57;100.00;98272.62;105110;1267;59562;-72
2024/03/03 01:11:01;;;;;;;124.90;99.80;;;;;;;7.56;100.00;98272.46;105139;1268;65079;-72
2024/03/03 01:13:28;;;;;;;120.80;98.00;;;;;;;7.55;100.00;98273.80;105114;1268;61407;-71
2024/03/03 01:15:54;;;;;;;118.50;93.10;;;;;;;7.54;100.00;98268.77;105113;1266;59639;-72
2024/03/03 01:18:21;;;;;;;111.20;90.90;;;;;;;7.54;100.00;98271.21;105111;1268;59775;-70
2024/03/03 01:20:47;;;;;;;111.40;92.70;;;;;;;7.54;100.00;98272.67;105111;1263;59564;-71
2024/03/03 01:23:16;;;;;;;109.80;89.90;;;;;;;7.52;100.00;98274.15;104919;1263;59568;-72
2024/03/03 01:25:43;;;;;;;117.20;89.80;;;;;;;7.51;100.00;98272.64;105548;1256;61852;-71
2024/03/03 01:28:10;;;;;;;122.90;93.00;;;;;;;7.50;100.00;98271.66;105443;1261;64408;-73
2024/03/03 01:30:37;;;;;;;116.30;92.50;;;;;;;7.47;100.00;98268.13;105507;1258;59766;-70
2024/03/03 01:33:03;;;;;;;112.30;91.60;;;;;;;7.44;100.00;98268.12;105634;1263;59740;-71
2024/03/03 01:35:30;;;;;;;115.80;90.30;;;;;;;7.41;100.00;98266.39;105594;1257;63088;-71
2024/03/03 01:37:57;;;;;;;110.90;88.90;;;;;;;7.38;100.00;98271.05;105612;1255;60834;-71
2024/03/03 01:40:23;;;;;;;110.30;84.60;;;;;;;7.33;100.00;98266.73;105705;1260;65728;-73
2024/03/03 01:42:56;;;;;;;110.20;86.90;;;;;;;7.29;100.00;98263.65;105673;1256;60120;-72
2024/03/03 01:45:24;;;;;;;106.50;83.40;;;;;;;7.26;100.00;98260.88;105947;1259;60024;-72
2024/03/03 01:47:52;;;;;;;104.40;83.20;;;;;;;7.22;100.00;98263.07;105636;1259;65821;-72
2024/03/03 01:50:19;;;;;;;104.80;83.90;;;;;;;7.17;100.00;98263.92;105609;1259;61657;-72
2024/03/03 01:52:48;;;;;;;110.20;83.90;;;;;;;7.11;100.00;98268.17;105801;1255;64731;-72
2024/03/03 01:55:18;;;;;;;105.90;84.40;;;;;;;7.05;100.00;98271.37;105659;1256;59737;-72
2024/03/03 01:57:46;;;;;;;;;;;;;;;7.00;100.00;98269.39;105597;1256;59637;-72
2024/03/03 02:00:13;;;;;;;107.90;83.70;;;;;;;6.96;100.00;98268.59;105611;1259;65117;-71
2024/03/03 02:02:40;;;;;;;105.40;83.90;;;;;;;6.93;100.00;98265.65;105678;1257;60047;-70
2024/03/03 02:05:08;;;;;;;112.30;90.40;;;;;;;6.88;100.00;98265.96;105427;1261;64267;-72
2024/03/03 02:07:34;;;;;;;106.00;85.30;;;;;;;6.83;100.00;98266.45;105583;1261;60466;-72
2024/03/03 02:10:02;;;;;;;99.70;84.10;;;;;;;6.79;100.00;98266.88;105574;1260;59516;-72
2024/03/03 02:12:28;;;;;;;104.50;87.70;;;;;;;6.74;100.00;98265.20;105610;1259;73820;-72
2024/03/03 02:14:55;;;;;;;108.00;85.50;;;;;;;6.69;100.00;98262.38;105533;1258;59717;-72
2024/03/03 02:17:22;;;;;;;102.90;83.10;;;;;;;6.62;100.00;98259.63;105614;1258;63722;-73
2024/03/03 02:19:49;;;;;;;101.10;79.30;;;;;;;6.55;100.00;98255.66;105574;1257;59516;-72
2024/03/03 02:22:15;;;;;;;101.90;81.40;;;;;;;6.49;100.00;98252.88;105763;1257;59832;-72
2024/03/03 02:24:42;;;;;;;109.10;84.10;;;;;;;6.42;100.00;98250.11;105686;1258;59608;-73
2024/03/03 02:27:10;;;;;;;104.80;81.00;;;;;;;6.36;100.00;98251.58;105696;1258;60957;-71
2024/03/03 02:29:37;;;;;;;106.70;80.80;;;;;;;6.29;100.00;98254.45;105649;1259;64494;-71
2024/03/03 02:32:03;;;;;;;104.30;82.60;;;;;;;6.24;100.00;98256.38;105656;1259;59643;-72
2024/03/03 02:34:30;;;;;;;105.60;80.40;;;;;;;6.18;100.00;98254.23;105586;1260;59705;-71
2024/03/03 02:36:56;;;;;;;104.80;80.70;;;;;;;6.14;100.00;98254.13;105624;1260;65146;-72
2024/03/03 02:39:23;;;;;;;106.70;81.90;;;;;;;6.12;100.00;98255.14;105633;1260;59803;-72
2024/03/03 02:41:50;;;;;;;106.00;80.00;;;;;;;6.10;100.00;98253.85;105478;1261;59792;-72
2024/03/03 02:44:16;;;;;;;101.20;77.70;;;;;;;6.07;100.00;98249.59;105585;1260;59643;-71
2024/03/03 02:46:43;;;;;;;97.00;74.20;;;;;;;6.06;100.00;98245.96;105625;1259;59647;-72
2024/03/03 02:49:09;;;;;;;97.50;73.40;;;;;;;6.06;100.00;98247.08;105664;1269;59585;-71
2024/03/03 02:51:36;;;;;;;102.40;75.80;;;;;;;6.05;100.00;98241.61;105643;1260;59664;-71
2024/03/03 02:54:02;;;;;;;95.80;73.10;;;;;;;6.06;100.00;98236.44;105603;1256;59733;-71
2024/03/03 02:56:29;;;;;;;100.40;77.30;;;;;;;6.09;100.00;98238.02;105615;1257;59622;-71
2024/03/03 02:58:56;;;;;;;106.80;81.20;;;;;;;6.09;100.00;98237.52;105674;1261;59750;-73
2024/03/03 03:01:22;;;;;;;111.20;81.80;;;;;;;6.06;100.00;98235.38;105656;1261;59710;-71
2024/03/03 03:03:49;;;;;;;113.80;84.20;;;;;;;6.03;100.00;98236.98;105662;1259;59663;-72
2024/03/03 03:06:15;;;;;;;112.40;84.50;;;;;;;6.01;100.00;98236.21;105590;1257;59982;-73
2024/03/03 03:08:42;;;;;;;115.20;88.30;;;;;;;5.99;100.00;98237.24;105581;1257;59690;-72
2024/03/03 03:11:08;;;;;;;117.30;90.40;;;;;;;5.96;100.00;98241.81;105619;1255;59683;-72
2024/03/03 03:13:35;;;;;;;116.40;90.30;;;;;;;5.93;100.00;98238.27;105658;1258;59733;-71
2024/03/03 03:25:45;;;;;;;114.40;84.50;;;;;;;5.85;100.00;98234.52;102527;1292;600482;-71
2024/03/03 03:28:11;;;;;;;118.40;88.00;;;;;;;5.79;100.00;98237.52;104967;1266;59374;-72
2024/03/03 03:30:38;;;;;;;114.40;84.80;;;;;;;5.74;100.00;98243.29;104783;1266;59364;-71
2024/03/03 03:33:05;;;;;;;118.30;89.40;;;;;;;5.69;100.00;98240.75;104962;1265;60698;-72
2024/03/03 03:35:31;;;;;;;127.80;91.90;;;;;;;5.65;100.00;98240.26;104795;1266;59335;-72
2024/03/03 03:37:58;;;;;;;133.00;94.70;;;;;;;5.66;100.00;98240.73;104993;1266;59802;-71
2024/03/03 03:40:25;;;;;;;127.40;92.10;;;;;;;5.70;100.00;98241.92;104968;1264;149432;-72
2024/03/03 03:42:52;;;;;;;134.70;96.00;;;;;;;5.71;100.00;98237.48;105062;1264;59330;-70
2024/03/03 03:45:19;;;;;;;134.80;96.40;;;;;;;5.70;100.00;98238.02;105097;1264;59353;-71
2024/03/03 03:47:46;;;;;;;135.40;98.10;;;;;;;5.70;100.00;98235.77;105091;1264;60784;-71
2024/03/03 03:50:12;;;;;;;141.20;95.40;;;;;;;5.69;100.00;98240.77;105060;1264;59641;-72
2024/03/03 03:52:39;;;;;;;137.30;100.70;;;;;;;5.69;100.00;98243.02;105083;1264;59618;-70
2024/03/03 03:55:06;;;;;;;133.40;95.10;;;;;;;5.67;100.00;98243.48;104978;1270;59533;-71
2024/03/03 03:57:32;;;;;;;141.90;99.30;;;;;;;5.68;100.00;98239.72;105004;1270;65369;-71
2024/03/03 03:59:59;;;;;;;138.40;98.20;;;;;;;5.70;100.00;98242.96;105075;1266;59637;-71
2024/03/03 04:02:27;;;;;;;140.50;99.30;;;;;;;5.68;100.00;98239.73;105107;1264;63369;-71
2024/03/03 04:04:53;;;;;;;132.10;96.60;;;;;;;5.65;100.00;98236.23;105099;1267;59715;-71
2024/03/03 04:07:20;;;;;;;138.80;97.40;;;;;;;5.60;100.00;98237.79;105093;1264;59596;-70
2024/03/03 04:09:46;;;;;;;139.70;99.20;;;;;;;5.56;100.00;98233.80;104990;1264;59668;-71
2024/03/03 04:12:13;;;;;;;134.50;98.30;;;;;;;5.53;100.00;98233.06;105066;1267;59679;-71
2024/03/03 04:14:40;;;;;;;137.90;102.60;;;;;;;5.47;100.00;98237.27;105145;1266;63975;-72
2024/03/03 04:17:06;;;;;;;144.70;102.10;;;;;;;5.46;100.00;98235.77;105081;1264;59637;-71
2024/03/03 04:19:33;;;;;;;145.90;104.40;;;;;;;5.46;100.00;98236.31;105121;1266;59562;-72
2024/03/03 04:21:59;;;;;;;157.40;111.60;;;;;;;5.46;100.00;98237.36;105094;1267;59704;-71
2024/03/03 04:24:26;;;;;;;157.80;108.40;;;;;;;5.45;100.00;98239.14;105110;1266;59743;-71
2024/03/03 04:26:52;;;;;;;154.20;109.40;;;;;;;5.44;100.00;98237.63;105098;1265;59628;-70
2024/03/03 04:29:19;;;;;;;151.10;108.50;;;;;;;5.43;100.00;98237.33;105127;1266;59794;-72
2024/03/03 04:31:45;;;;;;;162.10;110.10;;;;;;;5.42;100.00;98230.16;105201;1267;59638;-71
2024/03/03 04:34:12;;;;;;;157.80;110.50;;;;;;;5.41;100.00;98226.90;105162;1264;59772;-72
2024/03/03 04:36:43;;;;;;;154.50;111.60;;;;;;;5.40;100.00;98225.37;105178;1267;59773;-71
2024/03/03 04:39:10;;;;;;;154.20;112.60;;;;;;;5.38;100.00;98225.11;105187;1264;66312;-72
2024/03/03 04:41:37;;;;;;;162.00;111.40;;;;;;;5.36;100.00;98222.77;105120;1265;59638;-72
2024/03/03 04:44:04;;;;;;;163.50;111.40;;;;;;;5.35;100.00;98220.05;105575;1256;59552;-72
2024/03/03 04:46:31;;;;;;;161.50;110.40;;;;;;;5.34;100.00;98220.43;105381;1264;65033;-70
2024/03/03 04:48:58;;;;;;;152.10;108.30;;;;;;;5.34;100.00;98220.98;105398;1256;61168;-71
2024/03/03 04:51:25;;;;;;;150.20;107.80;;;;;;;5.32;100.00;98221.95;105451;1261;65845;-71
2024/03/03 04:53:51;;;;;;;152.10;106.60;;;;;;;5.32;100.00;98221.45;105425;1256;59748;-70
2024/03/03 04:56:18;;;;;;;157.60;107.10;;;;;;;5.32;100.00;98223.55;105428;1256;59643;-71
2024/03/03 04:58:44;;;;;;;146.70;103.50;;;;;;;5.31;100.00;98223.95;105460;1256;64892;-71
2024/03/03 05:01:11;;;;;;;152.50;104.80;;;;;;;5.30;100.00;98227.36;105409;1260;59607;-71
2024/03/03 05:03:38;;;;;;;146.60;102.40;;;;;;;5.28;100.00;98223.08;105351;1263;59999;-71
2024/03/03 05:06:05;;;;;;;145.90;102.70;;;;;;;5.25;100.00;98226.41;105484;1256;59623;-70
2024/03/03 05:08:31;;;;;;;145.60;103.10;;;;;;;5.22;100.00;98225.17;105452;1259;60101;-70
2024/03/03 05:10:58;;;;;;;136.60;97.90;;;;;;;5.19;100.00;98224.64;105404;1259;64125;-72
2024/03/03 05:13:24;;;;;;;136.70;97.80;;;;;;;5.16;100.00;98221.64;105474;1260;59649;-71
2024/03/03 05:15:51;;;;;;;147.70;102.80;;;;;;;5.16;100.00;98216.38;105410;1259;59539;-72
2024/03/03 05:18:18;;;;;;;141.00;100.40;;;;;;;5.16;100.00;98215.11;105429;1256;59742;-72
2024/03/03 05:20:45;;;;;;;149.90;101.40;;;;;;;5.17;100.00;98214.36;105330;1259;59776;-70
2024/03/03 05:23:12;;;;;;;141.00;100.00;;;;;;;5.17;100.00;98217.86;105453;1259;64964;-70
2024/03/03 05:25:38;;;;;;;148.60;102.50;;;;;;;5.19;100.00;98217.42;105443;1256;61962;-70
2024/03/03 05:28:06;;;;;;;138.30;99.10;;;;;;;5.21;100.00;98215.73;105424;1258;64735;-71
2024/03/03 05:30:36;;;;;;;145.80;101.20;;;;;;;5.21;100.00;98214.66;105436;1257;59812;-71
2024/03/03 05:33:04;;;;;;;147.90;103.40;;;;;;;5.21;100.00;98215.90;105477;1261;59583;-71
2024/03/03 05:35:31;;;;;;;150.40;104.70;;;;;;;5.22;100.00;98218.63;105538;1258;64449;-72
2024/03/03 05:37:57;;;;;;;145.10;103.60;;;;;;;5.24;100.00;98219.98;105463;1257;59544;-71
2024/03/03 05:40:24;;;;;;;147.70;103.30;;;;;;;5.24;100.00;98217.67;105420;1256;64290;-71
2024/03/03 05:42:51;;;;;;;139.60;100.50;;;;;;;5.25;100.00;98219.66;105408;1256;59542;-71
2024/03/03 05:45:18;;;;;;;141.00;102.20;;;;;;;5.26;100.00;98221.06;105483;1259;59613;-70
2024/03/03 05:47:44;;;;;;;142.40;101.20;;;;;;;5.27;100.00;98221.02;105775;1258;65933;-71
2024/03/03 05:50:11;;;;;;;141.10;98.00;;;;;;;5.31;100.00;98219.04;105777;1253;61006;-72
2024/03/03 05:52:37;;;;;;;139.20;100.10;;;;;;;5.37;100.00;98222.17;105737;1257;64582;-72
2024/03/03 05:55:04;;;;;;;144.10;99.90;;;;;;;5.45;100.00;98221.34;105745;1257;59731;-71
2024/03/03 05:57:31;;;;;;;140.50;99.50;;;;;;;5.53;100.00;98219.33;105591;1255;59636;-71
2024/03/03 05:59:58;;;;;;;134.80;96.10;;;;;;;5.60;100.00;98223.35;105772;1253;63872;-72
2024/03/03 06:02:24;;;;;;;136.80;97.40;;;;;;;5.66;100.00;98226.98;105803;1256;60852;-72
2024/03/03 06:04:51;;;;;;;130.80;97.10;;;;;;;5.73;100.00;98227.47;105779;1257;59682;-71
2024/03/03 06:07:17;;;;;;;133.70;95.30;;;;;;;5.81;100.00;98231.25;105799;1258;59566;-72
2024/03/03 06:09:44;;;;;;;135.60;97.70;;;;;;;5.87;100.00;98228.92;105859;1253;59628;-71
2024/03/03 06:12:11;;;;;;;135.60;97.90;;;;;;;5.94;100.00;98231.20;105806;1253;59616;-71
2024/03/03 06:14:38;;;;;;;130.40;98.60;;;;;;;6.01;100.00;98234.63;105795;1252;60455;-73
2024/03/03 06:17:04;;;;;;;131.70;98.40;;;;;;;6.09;100.00;98236.30;105811;1253;59673;-72
2024/03/03 06:19:31;;;;;;;119.20;89.50;;;;;;;6.17;100.00;98240.91;105787;1258;59623;-71
2024/03/03 06:21:58;;;;;;;120.70;92.50;;;;;;;6.24;100.00;98239.95;105802;1257;59655;-72
2024/03/03 06:24:24;;;;;;;124.60;91.00;;;;;;;6.31;100.00;98240.08;105797;1253;65153;-71
2024/03/03 06:26:51;;;;;;;119.50;88.70;;;;;;;6.36;100.00;98236.88;105777;1253;59533;-71
2024/03/03 06:29:18;;;;;;;118.60;88.30;;;;;;;6.45;100.00;98239.33;105813;1253;64043;-71
2024/03/03 06:31:45;;;;;;;113.70;86.50;;;;;;;6.55;100.00;98240.11;105651;1254;59658;-72
2024/03/03 06:34:12;;;;;;;106.60;85.10;;;;;;;6.64;100.00;98238.87;105822;1253;59676;-70
2024/03/03 06:36:39;;;;;;;111.70;84.60;;;;;;;6.72;100.00;98237.80;105432;1261;64987;-70
2024/03/03 06:39:06;;;;;;;104.20;79.00;;;;;;;6.82;100.00;98241.64;105821;1257;61549;-71
2024/03/03 06:41:32;;;;;;;104.60;80.10;;;;;;;6.91;100.00;98246.16;105774;1253;63641;-71
2024/03/03 06:43:59;;;;;;;93.70;74.80;;;;;;;7.00;100.00;98244.84;105741;1256;59540;-71
2024/03/03 06:46:25;;;;;;;96.70;73.90;;;;;;;7.11;100.00;98239.24;105813;1256;59627;-71
2024/03/03 06:48:52;;;;;;;87.00;71.00;;;;;;;7.18;100.00;98237.33;105775;1256;59673;-72
2024/03/03 06:51:19;;;;;;;94.70;73.30;;;;;;;7.24;100.00;98237.64;105814;1257;59709;-72
2024/03/03 06:53:46;;;;;;;89.00;72.00;;;;;;;7.30;100.00;98238.50;105800;1253;65257;-71
2024/03/03 06:56:15;;;;;;;86.50;68.60;;;;;;;7.36;100.00;98237.94;105852;1256;60004;-71
2024/03/03 06:58:43;;;;;;;85.10;68.60;;;;;;;7.43;100.00;98240.96;105821;1258;59997;-72
2024/03/03 07:01:10;;;;;;;86.30;68.60;;;;;;;7.53;100.00;98239.45;105828;1253;64041;-72
2024/03/03 07:06:22;;;;;;;93.70;78.00;;;;;;;7.68;100.00;98240.58;105825;1253;65237;-71
2024/03/03 07:08:49;;;;;;;92.10;74.30;;;;;;;7.76;100.00;98243.91;105804;1256;60482;-71
2024/03/03 07:11:15;;;;;;;81.60;62.10;;;;;;;7.83;100.00;98244.33;105850;1253;59540;-72
2024/03/03 07:13:42;;;;;;;79.30;61.90;;;;;;;7.88;100.00;98243.77;105924;1253;59539;-73
2024/03/03 07:16:08;;;;;;;72.50;59.70;;;;;;;7.96;100.00;98246.14;105876;1256;59546;-72
2024/03/03 07:18:35;;;;;;;69.80;57.10;;;;;;;8.02;100.00;98243.73;105937;1253;71353;-72
2024/03/03 07:21:01;;;;;;;76.90;60.80;;;;;;;8.11;100.00;98242.98;105914;1253;59626;-71
2024/03/03 07:23:28;;;;;;;74.20;63.70;;;;;;;8.19;100.00;98241.66;105930;1254;59659;-72
2024/03/03 07:25:54;;;;;;;70.60;58.50;;;;;;;8.28;100.00;98244.77;105917;1256;60143;-73
2024/03/03 07:28:21;;;;;;;70.80;57.90;;;;;;;8.32;100.00;98248.92;105908;1253;59731;-71
2024/03/03 07:30:47;;;;;;;68.80;55.00;;;;;;;8.38;100.00;98245.16;105931;1253;60458;-71
2024/03/03 07:33:14;;;;;;;63.80;53.30;;;;;;;8.44;100.00;98243.20;105876;1256;60464;-72
2024/03/03 07:35:40;;;;;;;61.70;51.40;;;;;;;8.48;100.00;98246.64;105924;1253;60434;-71
2024/03/03 07:38:07;;;;;;;66.30;53.90;;;;;;;8.52;100.00;98247.71;105916;1255;60579;-71
2024/03/03 07:40:37;;;;;;;65.70;52.00;;;;;;;8.58;100.00;98248.58;105787;1253;60345;-73
2024/03/03 07:43:06;;;;;;;63.30;54.60;;;;;;;8.65;100.00;98248.81;105771;1257;62705;-71
2024/03/03 07:45:33;;;;;;;64.70;55.10;;;;;;;8.74;100.00;98247.61;105805;1253;60468;-70
2024/03/03 07:47:59;;;;;;;67.00;55.70;;;;;;;8.87;100.00;98246.52;105794;1253;60414;-70
2024/03/03 07:50:26;;;;;;;65.40;53.80;;;;;;;8.98;100.00;98245.73;105773;1253;60411;-70
2024/03/03 07:52:53;;;;;;;65.20;54.60;;;;;;;9.04;100.00;98247.08;105796;1258;61088;-71
2024/03/03 07:55:19;;;;;;;72.00;58.80;;;;;;;9.08;100.00;98245.02;105862;1256;60543;-71
2024/03/03 07:57:46;;;;;;;62.20;54.60;;;;;;;9.13;100.00;98244.30;105559;1253;60417;-71
2024/03/03 08:00:13;;;;;;;74.00;60.20;;;;;;;9.18;100.00;98246.58;105800;1253;60423;-71
2024/03/03 08:02:40;;;;;;;60.80;50.30;;;;;;;9.24;100.00;98247.53;105781;1258;65335;-71
2024/03/03 08:05:06;;;;;;;61.50;51.70;;;;;;;9.27;100.00;98246.48;105795;1256;60435;-71
2024/03/03 08:07:33;;;;;;;62.60;52.80;;;;;;;9.30;100.00;98243.38;105828;1256;65392;-71
2024/03/03 08:09:59;;;;;;;62.40;51.00;;;;;;;9.34;100.00;98237.74;105798;1258;60439;-70
2024/03/03 08:12:26;;;;;;;56.70;47.80;;;;;;;9.41;100.00;98237.91;105647;1253;60616;-71
2024/03/03 08:14:52;;;;;;;55.10;47.10;;;;;;;9.50;100.00;98239.05;105832;1253;60533;-72
2024/03/03 08:17:19;;;;;;;54.30;46.20;;;;;;;9.52;100.00;98235.55;105818;1253;60884;-72
2024/03/03 08:19:45;;;;;;;54.80;43.40;;;;;;;9.58;100.00;98236.54;105817;1253;60554;-72
2024/03/03 08:22:12;;;;;;;56.60;47.10;;;;;;;9.64;100.00;98238.52;105805;1258;60514;-73
2024/03/03 08:24:40;;;;;;;52.70;43.00;;;;;;;9.74;100.00;98237.97;105819;1252;60412;-73
2024/03/03 08:27:06;;;;;;;51.70;42.00;;;;;;;9.83;100.00;98236.94;105990;1257;65663;-72
2024/03/03 08:29:33;;;;;;;52.90;42.00;;;;;;;9.90;100.00;98236.04;105852;1257;60416;-72
2024/03/03 08:31:59;;;;;;;50.50;42.10;;;;;;;9.99;100.00;98234.64;105825;1253;60543;-70
2024/03/03 08:34:26;;;;;;;49.30;39.20;;;;;;;10.09;100.00;98239.02;105773;1253;60658;-70
2024/03/03 08:36:52;;;;;;;49.80;40.80;;;;;;;10.18;100.00;98237.95;105822;1253;60481;-71
2024/03/03 08:39:19;;;;;;;49.60;40.80;;;;;;;10.23;100.00;98237.22;105597;1252;60461;-71
2024/03/03 08:41:46;;;;;;;44.60;37.00;;;;;;;10.28;100.00;98237.35;105844;1253;60467;-71
2024/03/03 08:44:13;;;;;;;42.50;36.70;;;;;;;10.41;100.00;98233.38;105801;1253;64827;-71
2024/03/03 08:46:39;;;;;;;43.80;35.20;;;;;;;10.56;100.00;98230.21;105775;1253;60420;-73
2024/03/03 08:49:06;;;;;;;37.50;32.90;;;;;;;10.69;100.00;98231.46;105795;1256;60424;-72
2024/03/03 08:51:40;;;;;;;36.40;31.90;;;;;;;10.83;100.00;98230.80;105894;1253;60432;-72
2024/03/03 08:54:07;;;;;;;36.00;31.40;;;;;;;10.93;100.00;98230.98;105811;1256;60882;-71
2024/03/03 08:56:33;;;;;;;33.40;28.50;;;;;;;11.04;100.00;98224.61;105806;1258;63293;-71
2024/03/03 08:59:00;;;;;;;33.50;29.10;;;;;;;11.14;100.00;98223.64;105895;1254;60464;-70
2024/03/03 09:01:26;;;;;;;31.20;26.00;;;;;;;11.24;100.00;98225.66;105834;1253;60348;-72
2024/03/03 09:03:53;;;;;;;28.70;24.40;;;;;;;11.37;100.00;98223.89;105786;1258;60922;-71
2024/03/03 09:06:20;;;;;;;30.90;25.10;;;;;;;11.43;100.00;98225.52;105827;1253;60638;-71
2024/03/03 09:08:47;;;;;;;32.80;26.40;;;;;;;11.51;100.00;98225.39;105617;1257;73394;-72
2024/03/03 09:11:14;;;;;;;28.00;24.70;;;;;;;11.53;100.00;98225.77;105925;1253;60524;-72
2024/03/03 09:13:40;;;;;;;27.50;24.30;;;;;;;11.52;100.00;98225.63;105836;1259;60317;-73
2024/03/03 09:16:07;;;;;;;27.00;23.30;;;;;;;11.54;100.00;98222.27;105785;1256;66668;-72
2024/03/03 09:18:34;;;;;;;28.20;25.00;;;;;;;11.60;100.00;98225.13;105648;1258;60435;-71
2024/03/03 09:30:59;;;;;;;27.50;18.30;;;;;;;12.35;100.00;98215.98;102786;1290;599401;-70
2024/03/03 09:33:26;;;;;;;18.50;16.50;;;;;;;12.40;100.00;98217.89;105112;1264;59989;-70
2024/03/03 09:35:53;;;;;;;16.40;14.50;;;;;;;12.47;100.00;98220.30;105164;1263;59355;-71
2024/03/03 09:38:19;;;;;;;17.10;14.00;;;;;;;12.52;100.00;98220.39;105112;1264;59352;-71
2024/03/03 09:40:46;;;;;;;16.60;14.80;;;;;;;12.63;100.00;98220.69;105158;1264;59362;-71
2024/03/03 09:43:16;;;;;;;19.70;15.10;;;;;;;12.69;100.00;98218.55;105129;1264;64456;-72
2024/03/03 09:45:44;;;;;;;16.20;14.50;;;;;;;12.78;100.00;98218.41;105248;1263;145154;-72
2024/03/03 09:48:12;;;;;;;15.10;13.50;;;;;;;12.92;100.00;98214.03;105481;1260;59352;-70
2024/03/03 09:50:39;;;;;;;15.90;12.50;;;;;;;13.07;100.00;98209.62;105283;1263;64330;-71
2024/03/03 09:53:08;;;;;;;10.60;9.60;;;;;;;13.20;100.00;98208.43;105087;1268;60352;-72
2024/03/03 09:55:39;;;;;;;15.40;10.80;;;;;;;13.29;100.00;98204.14;105342;1260;63680;-74
2024/03/03 09:58:09;;;;;;;11.20;10.00;;;;;;;13.30;100.00;98201.75;105320;1261;59719;-72
2024/03/03 10:00:36;;;;;;;10.50;8.70;;;;;;;13.32;100.00;98200.82;105297;1264;59608;-73
2024/03/03 10:03:03;;;;;;;12.20;10.00;;;;;;;13.38;100.00;98203.30;105098;1268;59554;-70
2024/03/03 10:05:31;;;;;;;11.80;9.90;;;;;;;13.41;100.00;98199.95;105510;1260;60634;-72
2024/03/03 10:08:02;;;;;;;12.70;10.50;;;;;;;13.46;100.00;98193.51;105319;1264;63581;-71
2024/03/03 10:10:38;;;;;;;11.80;10.30;;;;;;;13.54;100.00;98191.33;105360;1261;59739;-71
2024/03/03 10:13:05;;;;;;;11.70;9.70;;;;;;;13.64;100.00;98185.00;105113;1269;59635;-72
2024/03/03 10:15:33;;;;;;;11.40;10.20;;;;;;;13.72;100.00;98188.90;105367;1260;64122;-72
2024/03/03 10:18:03;;;;;;;10.30;9.20;;;;;;;13.78;100.00;98185.48;105181;1260;60367;-72
2024/03/03 10:20:33;;;;;;;11.10;10.00;;;;;;;13.90;100.00;98190.27;105358;1263;63769;-72
2024/03/03 10:22:59;;;;;;;11.60;10.00;;;;;;;13.99;100.00;98183.73;105415;1260;59640;-71
2024/03/03 10:25:26;;;;;;;11.80;10.40;;;;;;;14.07;100.00;98180.70;106027;1250;59727;-71
2024/03/03 10:28:09;;;;;;;11.50;10.40;;;;;;;14.17;100.00;98176.73;106102;1249;65089;-72
2024/03/03 10:30:36;;;;;;;12.30;10.20;;;;;;;14.28;100.00;98176.55;106026;1254;59816;-72
2024/03/03 10:33:04;;;;;;;14.20;11.10;;;;;;;14.37;100.00;98174.90;106200;1251;64690;-71
2024/03/03 10:35:31;;;;;;;12.90;10.70;;;;;;;14.48;100.00;98172.77;106257;1250;59541;-72
2024/03/03 10:38:04;;;;;;;12.20;10.80;;;;;;;14.57;100.00;98167.70;106230;1254;59512;-71
2024/03/03 10:40:33;;;;;;;17.50;14.20;;;;;;;14.61;100.00;98164.79;106209;1253;64998;-71
2024/03/03 10:43:00;;;;;;;25.20;22.50;;;;;;;14.68;100.00;98161.95;105949;1251;60163;-72
2024/03/03 10:45:27;;;;;;;19.50;17.40;;;;;;;14.73;100.00;98157.20;106129;1251;63882;-72
2024/03/03 10:47:53;;;;;;;22.80;18.60;;;;;;;14.75;100.00;98148.63;109804;1250;57366;-73
2024/03/03 10:50:22;;;;;;;15.30;13.70;;;;;;;14.83;100.00;98146.06;109791;1250;57763;-73
2024/03/03 10:52:51;;;;;;;20.40;18.20;;;;;;;14.91;100.00;98141.45;109841;1249;62900;-71
2024/03/03 10:55:18;;;;;;;14.30;12.20;;;;;;;15.03;100.00;98137.48;109832;1251;58820;-72
2024/03/03 10:57:46;;;;;;;15.50;13.90;;;;;;;15.09;100.00;98137.79;109806;1250;62501;-71
2024/03/03 11:00:16;;;;;;;13.90;12.60;;;;;;;15.19;100.00;98140.65;109766;1249;57729;-73
2024/03/03 11:02:45;;;;;;;;;;;;;;;15.31;100.00;98136.64;109807;1249;57465;-70
2024/03/03 11:05:13;;;;;;;13.80;10.90;;;;;;;15.39;100.00;98131.17;109760;1251;64438;-72
2024/03/03 11:07:39;;;;;;;12.40;10.90;;;;;;;15.43;100.00;98129.18;109813;1250;58717;-71
2024/03/03 11:10:07;;;;;;;12.40;10.30;;;;;;;15.44;100.00;98127.83;109790;1250;63747;-72
2024/03/03 11:12:36;;;;;;;11.00;9.90;;;;;;;15.44;100.00;98128.19;109834;1250;57911;-70
2024/03/03 11:15:04;;;;;;;12.10;10.60;;;;;;;15.52;100.00;98122.65;109786;1251;57338;-73
2024/03/03 11:17:41;;;;;;;11.10;9.40;;;;;;;15.70;100.00;98119.63;109774;1249;64144;-72
2024/03/03 11:20:17;;;;;;;10.40;8.50;;;;;;;15.86;100.00;98111.09;109825;1250;60397;-72
2024/03/03 11:22:55;;;;;;;10.70;9.60;;;;;;;15.91;100.00;98108.59;109801;1249;64380;-72